createdAt,value
2022-12-23T00:00:41.393Z,19.20
2022-12-23T00:01:41.797Z,17.70
2022-12-23T00:02:42.188Z,18.80
2022-12-23T00:03:42.483Z,16.60
2022-12-23T00:04:42.626Z,17.70
2022-12-23T00:05:42.981Z,16.60
2022-12-23T00:06:43.160Z,19.70
2022-12-23T00:07:43.366Z,18.20
2022-12-23T00:08:43.728Z,17.10
2022-12-23T00:09:44.047Z,19.40
2022-12-23T00:10:44.408Z,17.10
2022-12-23T00:11:44.613Z,17.00
2022-12-23T00:12:44.917Z,16.80
2022-12-23T00:13:45.217Z,17.70
2022-12-23T00:14:45.524Z,15.40
2022-12-23T00:15:45.843Z,13.90
2022-12-23T00:16:46.176Z,15.50
2022-12-23T00:17:46.362Z,16.00
2022-12-23T00:18:46.753Z,19.10
2022-12-23T00:19:47.039Z,15.50
2022-12-23T00:20:47.396Z,15.70
2022-12-23T00:21:47.677Z,16.20
2022-12-23T00:22:48.027Z,16.00
2022-12-23T00:23:48.177Z,14.10
2022-12-23T00:24:48.551Z,16.70
2022-12-23T00:25:48.851Z,14.40
2022-12-23T00:26:49.169Z,14.60
2022-12-23T00:27:49.489Z,15.00
2022-12-23T00:28:49.819Z,17.40
2022-12-23T00:29:50.134Z,14.20
2022-12-23T00:30:50.406Z,16.50
2022-12-23T00:31:50.754Z,15.00
2022-12-23T00:32:51.089Z,15.70
2022-12-23T00:33:51.304Z,15.40
2022-12-23T00:34:51.598Z,15.40
2022-12-23T00:35:51.989Z,13.70
2022-12-23T00:36:52.295Z,16.40
2022-12-23T00:37:52.525Z,13.40
2022-12-23T00:38:52.885Z,13.50
2022-12-23T00:39:55.038Z,14.10
2022-12-23T00:40:53.380Z,15.60
2022-12-23T00:41:53.771Z,15.00
2022-12-23T00:42:54.045Z,13.70
2022-12-23T00:43:54.322Z,13.20
2022-12-23T00:44:54.764Z,14.60
2022-12-23T00:45:55.124Z,10.70
2022-12-23T00:46:55.297Z,14.00
2022-12-23T00:47:55.598Z,13.40
2022-12-23T00:48:55.900Z,11.30
2022-12-23T00:49:56.198Z,14.00
2022-12-23T00:50:56.538Z,12.10
2022-12-23T00:51:56.861Z,13.40
2022-12-23T00:52:57.213Z,12.90
2022-12-23T00:53:57.384Z,11.60
2022-12-23T00:54:57.775Z,13.00
2022-12-23T00:55:57.975Z,13.00
2022-12-23T00:56:58.268Z,12.70
2022-12-23T00:57:58.552Z,10.50
2022-12-23T00:58:58.933Z,12.00
2022-12-23T00:59:59.631Z,11.30
2022-12-23T01:00:59.493Z,17.30
2022-12-23T01:01:59.919Z,13.90
2022-12-23T01:03:00.127Z,28.00
2022-12-23T01:04:01.322Z,12.30
2022-12-23T01:05:00.688Z,10.00
2022-12-23T01:06:00.904Z,12.50
2022-12-23T01:07:01.265Z,12.90
2022-12-23T01:08:01.593Z,11.50
2022-12-23T01:09:01.901Z,13.60
2022-12-23T01:10:02.206Z,12.80
2022-12-23T01:11:02.390Z,13.10
2022-12-23T01:12:02.684Z,12.90
2022-12-23T01:13:03.004Z,11.90
2022-12-23T01:14:03.329Z,12.30
2022-12-23T01:15:03.633Z,11.80
2022-12-23T01:16:03.932Z,10.80
2022-12-23T01:17:04.383Z,11.40
2022-12-23T01:18:04.630Z,9.90
2022-12-23T01:19:04.878Z,11.10
2022-12-23T01:20:05.168Z,12.00
2022-12-23T01:21:05.469Z,12.40
2022-12-23T01:22:05.719Z,9.70
2022-12-23T01:23:06.040Z,11.30
2022-12-23T01:24:06.206Z,10.30
2022-12-23T01:25:06.557Z,11.60
2022-12-23T01:26:06.830Z,11.70
2022-12-23T01:27:07.142Z,10.90
2022-12-23T01:28:07.446Z,11.70
2022-12-23T01:29:07.707Z,10.10
2022-12-23T01:30:07.887Z,9.90
2022-12-23T01:31:08.162Z,11.60
2022-12-23T01:32:08.493Z,11.10
2022-12-23T01:33:08.828Z,10.70
2022-12-23T01:34:09.099Z,8.70
2022-12-23T01:35:09.382Z,10.80
2022-12-23T01:36:09.707Z,10.10
2022-12-23T01:37:10.016Z,11.90
2022-12-23T01:38:10.695Z,10.20
2022-12-23T01:39:10.578Z,11.70
2022-12-23T01:40:10.892Z,13.40
2022-12-23T01:41:11.296Z,11.20
2022-12-23T01:42:11.551Z,10.60
2022-12-23T01:43:11.862Z,11.60
2022-12-23T01:44:12.212Z,10.40
2022-12-23T01:45:12.399Z,10.50
2022-12-23T01:46:12.814Z,9.80
2022-12-23T01:47:13.020Z,10.20
2022-12-23T01:48:13.338Z,10.90
2022-12-23T01:49:13.635Z,11.00
2022-12-23T01:50:14.009Z,9.90
2022-12-23T01:51:14.297Z,9.30
2022-12-23T01:52:14.516Z,9.80
2022-12-23T01:53:14.916Z,9.50
2022-12-23T01:54:15.102Z,10.50
2022-12-23T01:55:15.344Z,14.80
2022-12-23T01:56:15.696Z,20.00
2022-12-23T01:57:16.009Z,14.00
2022-12-23T01:58:16.346Z,12.30
2022-12-23T01:59:17.463Z,10.80
2022-12-23T02:00:16.934Z,8.80
2022-12-23T02:01:17.280Z,10.20
2022-12-23T02:02:17.781Z,10.60
2022-12-23T02:03:17.980Z,8.60
2022-12-23T02:04:18.173Z,10.00
2022-12-23T02:05:18.398Z,9.80
2022-12-23T02:06:18.687Z,10.00
2022-12-23T02:07:19.014Z,9.70
2022-12-23T02:08:19.330Z,10.50
2022-12-23T02:09:19.687Z,9.60
2022-12-23T02:10:19.940Z,9.00
2022-12-23T02:11:20.201Z,9.10
2022-12-23T02:12:20.510Z,10.80
2022-12-23T02:13:20.800Z,8.30
2022-12-23T02:14:21.104Z,10.50
2022-12-23T02:15:21.435Z,8.60
2022-12-23T02:16:21.755Z,10.60
2022-12-23T02:17:22.050Z,9.10
2022-12-23T02:18:22.359Z,10.00
2022-12-23T02:19:22.674Z,8.90
2022-12-23T02:20:22.955Z,9.70
2022-12-23T02:21:23.285Z,9.50
2022-12-23T02:22:23.513Z,8.20
2022-12-23T02:23:23.776Z,9.40
2022-12-23T02:24:24.092Z,10.80
2022-12-23T02:25:24.343Z,9.20
2022-12-23T02:26:24.580Z,8.80
2022-12-23T02:27:24.934Z,10.30
2022-12-23T02:28:25.232Z,8.40
2022-12-23T02:29:25.508Z,8.90
2022-12-23T02:30:25.840Z,9.60
2022-12-23T02:31:26.210Z,9.80
2022-12-23T02:32:26.403Z,8.40
2022-12-23T02:33:26.681Z,9.70
2022-12-23T02:34:26.992Z,9.10
2022-12-23T02:35:27.331Z,8.70
2022-12-23T02:36:27.607Z,10.20
2022-12-23T02:37:27.920Z,9.30
2022-12-23T02:38:28.231Z,8.60
2022-12-23T02:39:28.543Z,9.10
2022-12-23T02:40:28.843Z,11.90
2022-12-23T02:41:29.172Z,9.50
2022-12-23T02:42:29.448Z,8.70
2022-12-23T02:43:29.768Z,8.70
2022-12-23T02:44:30.008Z,8.30
2022-12-23T02:45:30.343Z,8.40
2022-12-23T02:46:30.727Z,8.20
2022-12-23T02:47:30.946Z,9.10
2022-12-23T02:48:31.215Z,7.60
2022-12-23T02:49:31.588Z,7.90
2022-12-23T02:50:31.877Z,7.80
2022-12-23T02:51:32.166Z,8.70
2022-12-23T02:52:32.458Z,8.20
2022-12-23T02:53:32.755Z,9.70
2022-12-23T02:54:33.055Z,8.30
2022-12-23T02:55:33.374Z,8.90
2022-12-23T02:56:33.664Z,9.20
2022-12-23T02:57:33.969Z,10.10
2022-12-23T02:58:34.331Z,8.20
2022-12-23T02:59:34.511Z,8.20
2022-12-23T03:00:34.816Z,8.70
2022-12-23T03:01:35.187Z,7.50
2022-12-23T03:02:35.587Z,8.20
2022-12-23T03:03:35.904Z,7.00
2022-12-23T03:04:35.973Z,9.40
2022-12-23T03:05:36.302Z,7.10
2022-12-23T03:06:36.552Z,7.30
2022-12-23T03:07:36.886Z,7.90
2022-12-23T03:08:37.219Z,8.40
2022-12-23T03:09:37.486Z,9.30
2022-12-23T03:10:37.803Z,9.10
2022-12-23T03:11:38.115Z,8.90
2022-12-23T03:12:38.371Z,8.50
2022-12-23T03:13:38.779Z,8.50
2022-12-23T03:14:38.956Z,7.70
2022-12-23T03:15:39.352Z,8.40
2022-12-23T03:16:39.500Z,9.00
2022-12-23T03:17:39.921Z,8.60
2022-12-23T03:18:40.047Z,8.10
2022-12-23T03:19:40.378Z,10.50
2022-12-23T03:20:40.623Z,9.70
2022-12-23T03:21:40.914Z,7.60
2022-12-23T03:22:41.231Z,9.50
2022-12-23T03:23:41.575Z,9.90
2022-12-23T03:24:41.902Z,7.00
2022-12-23T03:25:42.194Z,8.20
2022-12-23T03:26:42.503Z,7.60
2022-12-23T03:27:42.781Z,7.00
2022-12-23T03:28:43.015Z,7.40
2022-12-23T03:29:43.382Z,6.50
2022-12-23T03:30:43.700Z,6.60
2022-12-23T03:31:44.061Z,6.20
2022-12-23T03:32:44.267Z,6.80
2022-12-23T03:33:44.595Z,7.60
2022-12-23T03:34:44.896Z,5.80
2022-12-23T03:35:45.208Z,7.10
2022-12-23T03:36:45.487Z,6.30
2022-12-23T03:37:45.813Z,7.20
2022-12-23T03:38:46.110Z,7.80
2022-12-23T03:39:46.411Z,7.00
2022-12-23T03:40:46.701Z,6.70
2022-12-23T03:41:47.057Z,5.80
2022-12-23T03:42:47.206Z,5.90
2022-12-23T03:43:51.016Z,5.50
2022-12-23T03:45:10.771Z,6.90
2022-12-23T03:45:49.133Z,6.50
2022-12-23T03:46:48.329Z,6.10
2022-12-23T03:47:48.626Z,5.40
2022-12-23T03:48:48.956Z,5.90
2022-12-23T03:49:49.267Z,5.40
2022-12-23T03:50:49.586Z,6.00
2022-12-23T03:51:49.898Z,5.40
2022-12-23T03:52:50.188Z,6.00
2022-12-23T03:53:50.396Z,5.30
2022-12-23T03:54:50.706Z,5.40
2022-12-23T03:55:51.049Z,6.90
2022-12-23T03:56:51.287Z,6.70
2022-12-23T03:57:51.619Z,6.00
2022-12-23T03:58:51.829Z,6.20
2022-12-23T03:59:52.168Z,5.70
2022-12-23T04:00:52.429Z,5.20
2022-12-23T04:01:52.920Z,4.50
2022-12-23T04:02:53.342Z,5.00
2022-12-23T04:03:53.457Z,5.20
2022-12-23T04:04:53.671Z,4.50
2022-12-23T04:05:53.957Z,4.40
2022-12-23T04:06:54.269Z,3.60
2022-12-23T04:07:54.608Z,4.50
2022-12-23T04:08:54.770Z,4.00
2022-12-23T04:09:55.141Z,5.10
2022-12-23T04:10:55.377Z,5.50
2022-12-23T04:11:55.660Z,5.50
2022-12-23T04:12:55.973Z,5.20
2022-12-23T04:13:56.248Z,5.30
2022-12-23T04:14:56.605Z,5.40
2022-12-23T04:15:56.879Z,3.70
2022-12-23T04:16:57.185Z,4.30
2022-12-23T04:17:57.501Z,3.90
2022-12-23T04:18:57.796Z,4.30
2022-12-23T04:19:58.094Z,4.10
2022-12-23T04:21:05.274Z,5.90
2022-12-23T04:21:58.695Z,4.20
2022-12-23T04:22:59.011Z,4.40
2022-12-23T04:23:59.332Z,5.20
2022-12-23T04:24:59.629Z,4.10
2022-12-23T04:25:59.932Z,5.30
2022-12-23T04:27:00.219Z,4.40
2022-12-23T04:28:00.631Z,4.00
2022-12-23T04:29:00.816Z,5.00
2022-12-23T04:30:01.195Z,7.80
2022-12-23T04:31:01.399Z,10.70
2022-12-23T04:32:01.718Z,17.80
2022-12-23T04:33:02.020Z,16.80
2022-12-23T04:34:02.380Z,11.60
2022-12-23T04:35:02.594Z,11.10
2022-12-23T04:36:02.972Z,7.50
2022-12-23T04:37:03.208Z,6.30
2022-12-23T04:38:03.676Z,6.90
2022-12-23T04:39:03.880Z,5.40
2022-12-23T04:40:04.056Z,4.80
2022-12-23T04:41:04.380Z,5.70
2022-12-23T04:42:04.613Z,6.40
2022-12-23T04:43:04.883Z,5.30
2022-12-23T04:44:05.215Z,6.10
2022-12-23T04:45:05.485Z,4.60
2022-12-23T04:46:06.037Z,6.40
2022-12-23T04:47:06.172Z,4.80
2022-12-23T04:48:06.361Z,5.80
2022-12-23T04:49:06.706Z,5.10
2022-12-23T04:50:07.026Z,4.80
2022-12-23T04:51:07.297Z,3.90
2022-12-23T04:52:07.615Z,4.20
2022-12-23T04:53:07.928Z,4.10
2022-12-23T04:54:08.175Z,4.60
2022-12-23T04:55:08.446Z,6.10
2022-12-23T04:56:08.850Z,4.90
2022-12-23T04:57:09.019Z,5.30
2022-12-23T04:58:09.350Z,4.40
2022-12-23T04:59:09.613Z,4.60
2022-12-23T05:00:09.935Z,4.80
2022-12-23T05:01:10.296Z,5.20
2022-12-23T05:02:10.827Z,5.10
2022-12-23T05:03:10.957Z,4.10
2022-12-23T05:04:11.263Z,4.60
2022-12-23T05:05:11.441Z,5.40
2022-12-23T05:06:11.796Z,4.60
2022-12-23T05:07:12.011Z,4.90
2022-12-23T05:08:12.258Z,5.00
2022-12-23T05:09:12.603Z,6.70
2022-12-23T05:10:12.936Z,4.70
2022-12-23T05:11:13.221Z,3.90
2022-12-23T05:12:13.538Z,5.60
2022-12-23T05:13:13.816Z,4.00
2022-12-23T05:14:14.108Z,4.10
2022-12-23T05:15:14.448Z,3.80
2022-12-23T05:16:14.744Z,4.00
2022-12-23T05:17:14.994Z,3.60
2022-12-23T05:18:15.288Z,4.60
2022-12-23T05:19:15.417Z,5.60
2022-12-23T05:20:15.750Z,4.90
2022-12-23T05:21:16.135Z,5.30
2022-12-23T05:22:16.302Z,5.20
2022-12-23T05:23:16.694Z,5.70
2022-12-23T05:24:16.851Z,3.40
2022-12-23T05:25:17.189Z,3.30
2022-12-23T05:26:17.495Z,4.80
2022-12-23T05:27:17.775Z,4.50
2022-12-23T05:28:18.071Z,3.90
2022-12-23T05:29:18.354Z,4.50
2022-12-23T05:30:18.671Z,4.00
2022-12-23T05:31:18.865Z,4.60
2022-12-23T05:32:19.172Z,4.70
2022-12-23T05:33:19.530Z,4.10
2022-12-23T05:34:19.827Z,3.60
2022-12-23T05:35:20.103Z,4.00
2022-12-23T05:36:20.466Z,5.10
2022-12-23T05:37:20.730Z,3.50
2022-12-23T05:38:21.067Z,3.80
2022-12-23T05:39:21.283Z,4.10
2022-12-23T05:40:24.067Z,5.40
2022-12-23T05:41:21.856Z,4.70
2022-12-23T05:42:22.181Z,5.60
2022-12-23T05:43:22.455Z,5.50
2022-12-23T05:44:22.793Z,5.20
2022-12-23T05:45:22.997Z,7.90
2022-12-23T05:46:26.903Z,7.70
2022-12-23T05:47:23.595Z,5.20
2022-12-23T05:48:23.914Z,5.40
2022-12-23T05:49:24.194Z,8.50
2022-12-23T05:50:24.458Z,7.40
2022-12-23T05:51:24.757Z,8.30
2022-12-23T05:52:25.051Z,6.70
2022-12-23T05:53:25.309Z,6.60
2022-12-23T05:54:25.664Z,8.00
2022-12-23T05:55:25.960Z,9.10
2022-12-23T05:56:26.252Z,7.50
2022-12-23T05:57:26.507Z,5.30
2022-12-23T05:58:26.936Z,5.30
2022-12-23T05:59:30.944Z,6.00
2022-12-23T06:00:27.439Z,7.90
2022-12-23T06:01:27.686Z,4.60
2022-12-23T06:02:28.110Z,5.10
2022-12-23T06:03:28.554Z,4.40
2022-12-23T06:04:28.593Z,4.30
2022-12-23T06:05:28.818Z,5.20
2022-12-23T06:06:29.052Z,6.80
2022-12-23T06:07:29.328Z,5.40
2022-12-23T06:08:29.723Z,4.50
2022-12-23T06:09:29.989Z,6.80
2022-12-23T06:10:30.344Z,5.70
2022-12-23T06:11:30.506Z,4.50
2022-12-23T06:12:30.844Z,5.10
2022-12-23T06:13:31.107Z,6.30
2022-12-23T06:14:31.457Z,7.50
2022-12-23T06:15:31.753Z,5.80
2022-12-23T06:16:32.126Z,5.40
2022-12-23T06:17:32.335Z,4.40
2022-12-23T06:18:32.633Z,4.20
2022-12-23T06:19:32.934Z,4.60
2022-12-23T06:20:33.214Z,4.90
2022-12-23T06:21:33.559Z,4.50
2022-12-23T06:22:33.727Z,6.00
2022-12-23T06:23:34.050Z,6.10
2022-12-23T06:24:34.325Z,6.50
2022-12-23T06:25:34.639Z,7.20
2022-12-23T06:26:34.925Z,7.10
2022-12-23T06:27:35.186Z,7.10
2022-12-23T06:28:35.443Z,6.00
2022-12-23T06:29:35.700Z,6.60
2022-12-23T06:30:36.004Z,7.90
2022-12-23T06:31:36.341Z,7.50
2022-12-23T06:32:38.766Z,5.70
2022-12-23T06:33:36.840Z,5.80
2022-12-23T06:34:37.203Z,6.10
2022-12-23T06:35:37.374Z,6.90
2022-12-23T06:36:37.718Z,6.30
2022-12-23T06:37:38.013Z,5.60
2022-12-23T06:38:38.271Z,4.80
2022-12-23T06:39:38.655Z,4.60
2022-12-23T06:40:38.930Z,5.00
2022-12-23T06:41:39.192Z,5.90
2022-12-23T06:42:39.502Z,5.50
2022-12-23T06:43:39.773Z,5.60
2022-12-23T06:44:40.067Z,5.70
2022-12-23T06:45:40.428Z,6.70
2022-12-23T06:46:40.608Z,4.90
2022-12-23T06:47:40.979Z,5.50
2022-12-23T06:48:41.210Z,5.20
2022-12-23T06:49:41.631Z,5.50
2022-12-23T06:50:41.827Z,5.60
2022-12-23T06:51:42.106Z,5.60
2022-12-23T06:52:42.436Z,4.40
2022-12-23T06:53:42.612Z,6.70
2022-12-23T06:54:42.877Z,6.20
2022-12-23T06:55:43.223Z,5.70
2022-12-23T06:56:43.355Z,8.90
2022-12-23T06:57:43.666Z,6.30
2022-12-23T06:58:43.976Z,6.20
2022-12-23T06:59:44.223Z,7.00
2022-12-23T07:00:44.953Z,5.60
2022-12-23T07:01:44.895Z,6.80
2022-12-23T07:02:45.116Z,6.40
2022-12-23T07:03:45.300Z,7.20
2022-12-23T07:04:45.478Z,9.70
2022-12-23T07:05:45.766Z,6.60
2022-12-23T07:06:46.151Z,8.40
2022-12-23T07:07:46.375Z,9.40
2022-12-23T07:08:46.606Z,6.80
2022-12-23T07:09:46.956Z,5.80
2022-12-23T07:10:47.179Z,6.80
2022-12-23T07:11:47.446Z,8.30
2022-12-23T07:12:50.860Z,7.30
2022-12-23T07:13:48.125Z,5.00
2022-12-23T07:14:48.337Z,6.60
2022-12-23T07:15:49.419Z,7.90
2022-12-23T07:16:48.954Z,8.20
2022-12-23T07:17:49.205Z,6.20
2022-12-23T07:18:49.400Z,6.20
2022-12-23T07:19:49.615Z,6.10
2022-12-23T07:20:49.980Z,6.10
2022-12-23T07:21:50.269Z,5.20
2022-12-23T07:22:51.433Z,6.30
2022-12-23T07:23:50.696Z,6.90
2022-12-23T07:24:50.964Z,7.70
2022-12-23T07:25:52.078Z,6.70
2022-12-23T07:26:51.562Z,5.30
2022-12-23T07:27:51.729Z,8.80
2022-12-23T07:28:52.066Z,7.50
2022-12-23T07:29:52.412Z,7.30
2022-12-23T07:30:52.720Z,7.10
2022-12-23T07:31:53.808Z,5.50
2022-12-23T07:32:53.180Z,9.30
2022-12-23T07:33:53.414Z,5.30
2022-12-23T07:34:53.805Z,6.40
2022-12-23T07:35:54.012Z,5.20
2022-12-23T07:36:54.405Z,7.50
2022-12-23T07:37:54.577Z,7.00
2022-12-23T07:38:54.941Z,6.10
2022-12-23T07:39:55.198Z,5.00
2022-12-23T07:40:55.438Z,5.40
2022-12-23T07:42:16.504Z,8.10
2022-12-23T07:42:56.943Z,7.90
2022-12-23T07:43:56.256Z,6.80
2022-12-23T07:44:56.454Z,7.60
2022-12-23T07:46:00.719Z,5.80
2022-12-23T07:46:57.074Z,7.70
2022-12-23T07:47:57.322Z,9.90
2022-12-23T07:48:57.564Z,7.70
2022-12-23T07:49:57.805Z,7.10
2022-12-23T07:50:58.115Z,8.20
2022-12-23T07:51:58.332Z,7.10
2022-12-23T07:52:58.656Z,7.50
2022-12-23T07:53:59.380Z,10.80
2022-12-23T07:54:59.139Z,8.10
2022-12-23T07:55:59.474Z,7.90
2022-12-23T07:56:59.681Z,10.00
2022-12-23T07:57:59.917Z,9.00
2022-12-23T07:59:00.313Z,7.90
2022-12-23T08:00:00.517Z,7.90
2022-12-23T08:01:01.739Z,7.10
2022-12-23T08:02:01.149Z,7.30
2022-12-23T08:03:01.393Z,7.70
2022-12-23T08:04:01.583Z,7.70
2022-12-23T08:05:02.857Z,8.00
2022-12-23T08:06:02.255Z,8.80
2022-12-23T08:07:02.643Z,7.00
2022-12-23T08:08:02.858Z,10.10
2022-12-23T08:09:03.138Z,9.00
2022-12-23T08:10:04.388Z,5.60
2022-12-23T08:11:03.660Z,7.50
2022-12-23T08:12:03.887Z,7.10
2022-12-23T08:13:04.161Z,6.50
2022-12-23T08:14:04.415Z,7.60
2022-12-23T08:15:04.714Z,5.80
2022-12-23T08:16:04.958Z,7.30
2022-12-23T08:17:06.138Z,8.40
2022-12-23T08:18:05.435Z,7.10
2022-12-23T08:19:05.797Z,8.10
2022-12-23T08:20:06.076Z,6.30
2022-12-23T08:21:06.301Z,5.50
2022-12-23T08:22:06.620Z,5.00
2022-12-23T08:23:06.820Z,7.40
2022-12-23T08:24:07.018Z,7.10
2022-12-23T08:25:09.063Z,6.30
2022-12-23T08:26:07.562Z,7.30
2022-12-23T08:27:08.664Z,6.70
2022-12-23T08:28:08.065Z,6.40
2022-12-23T08:29:08.268Z,7.20
2022-12-23T08:30:08.504Z,8.30
2022-12-23T08:31:08.793Z,8.50
2022-12-23T08:32:09.041Z,6.70
2022-12-23T08:33:09.282Z,7.80
2022-12-23T08:34:09.564Z,9.00
2022-12-23T08:35:09.840Z,11.50
2022-12-23T08:36:10.041Z,10.90
2022-12-23T08:37:10.294Z,9.00
2022-12-23T08:38:10.504Z,9.80
2022-12-23T08:39:10.915Z,9.70
2022-12-23T08:40:11.184Z,8.40
2022-12-23T08:41:11.437Z,9.70
2022-12-23T08:42:11.642Z,10.80
2022-12-23T08:43:11.959Z,10.40
2022-12-23T08:44:12.180Z,7.30
2022-12-23T08:45:12.408Z,6.70
2022-12-23T08:46:12.694Z,10.70
2022-12-23T08:47:13.373Z,10.00
2022-12-23T08:48:13.221Z,7.50
2022-12-23T08:49:13.495Z,9.70
2022-12-23T08:50:13.750Z,9.70
2022-12-23T08:51:14.008Z,8.90
2022-12-23T08:52:14.316Z,8.60
2022-12-23T08:53:14.534Z,6.80
2022-12-23T08:54:14.830Z,7.60
2022-12-23T08:55:15.096Z,7.00
2022-12-23T08:56:15.332Z,7.60
2022-12-23T08:57:15.626Z,7.90
2022-12-23T08:58:15.827Z,8.20
2022-12-23T08:59:19.107Z,8.20
2022-12-23T09:00:16.322Z,8.70
2022-12-23T09:01:16.738Z,6.70
2022-12-23T09:02:17.185Z,6.90
2022-12-23T09:03:17.282Z,9.00
2022-12-23T09:04:18.327Z,6.90
2022-12-23T09:05:17.825Z,8.00
2022-12-23T09:06:23.312Z,7.40
2022-12-23T09:07:19.450Z,7.40
2022-12-23T09:08:18.614Z,7.40
2022-12-23T09:09:18.913Z,7.40
2022-12-23T09:10:19.168Z,7.30
2022-12-23T09:11:19.417Z,8.90
2022-12-23T09:12:22.651Z,8.40
2022-12-23T09:13:27.759Z,5.50
2022-12-23T09:14:21.379Z,5.30
2022-12-23T09:15:20.645Z,15.40
2022-12-23T09:16:20.919Z,6.20
2022-12-23T09:17:21.227Z,4.90
2022-12-23T09:18:21.414Z,6.40
2022-12-23T09:19:21.710Z,7.10
2022-12-23T09:20:21.999Z,7.90
2022-12-23T09:21:22.220Z,5.50
2022-12-23T09:22:22.469Z,6.50
2022-12-23T09:23:22.703Z,6.60
2022-12-23T09:24:23.415Z,5.90
2022-12-23T09:25:23.287Z,6.30
2022-12-23T09:26:23.481Z,5.50
2022-12-23T09:27:23.761Z,5.70
2022-12-23T09:28:23.952Z,5.10
2022-12-23T09:29:24.386Z,7.20
2022-12-23T09:30:24.610Z,5.90
2022-12-23T09:31:27.973Z,9.30
2022-12-23T09:32:26.295Z,8.90
2022-12-23T09:33:25.322Z,9.70
2022-12-23T09:34:25.563Z,9.10
2022-12-23T09:35:25.858Z,9.10
2022-12-23T09:36:26.074Z,6.50
2022-12-23T09:37:26.322Z,5.50
2022-12-23T09:38:26.556Z,6.20
2022-12-23T09:39:26.841Z,7.10
2022-12-23T09:40:27.091Z,5.80
2022-12-23T09:41:27.308Z,6.40
2022-12-23T09:42:27.530Z,6.00
2022-12-23T09:43:27.920Z,16.80
2022-12-23T09:44:28.147Z,11.30
2022-12-23T09:45:28.407Z,12.00
2022-12-23T09:46:28.766Z,11.00
2022-12-23T09:47:29.016Z,6.00
2022-12-23T09:48:29.242Z,6.40
2022-12-23T09:49:29.596Z,9.20
2022-12-23T09:50:29.861Z,9.30
2022-12-23T09:51:30.136Z,6.90
2022-12-23T09:52:30.400Z,7.80
2022-12-23T09:53:30.596Z,5.60
2022-12-23T09:54:30.806Z,7.30
2022-12-23T09:55:31.167Z,6.70
2022-12-23T09:56:31.459Z,7.50
2022-12-23T09:57:31.770Z,6.30
2022-12-23T09:58:31.997Z,6.90
2022-12-23T09:59:32.221Z,7.60
2022-12-23T10:00:32.488Z,5.80
2022-12-23T10:01:32.929Z,5.40
2022-12-23T10:02:33.321Z,9.20
2022-12-23T10:03:33.627Z,7.00
2022-12-23T10:04:33.637Z,6.80
2022-12-23T10:05:33.966Z,8.30
2022-12-23T10:06:34.180Z,8.20
2022-12-23T10:07:35.043Z,6.60
2022-12-23T10:08:34.719Z,9.10
2022-12-23T10:09:34.953Z,6.80
2022-12-23T10:10:35.235Z,6.70
2022-12-23T10:11:35.439Z,7.60
2022-12-23T10:12:39.843Z,14.20
2022-12-23T10:13:35.987Z,6.00
2022-12-23T10:14:36.211Z,7.00
2022-12-23T10:15:36.461Z,7.00
2022-12-23T10:16:36.722Z,7.80
2022-12-23T10:17:37.014Z,7.90
2022-12-23T10:18:37.220Z,6.70
2022-12-23T10:19:37.963Z,7.20
2022-12-23T10:20:38.028Z,8.10
2022-12-23T10:21:42.225Z,8.90
2022-12-23T10:22:39.376Z,6.70
2022-12-23T10:23:38.620Z,6.40
2022-12-23T10:24:38.878Z,8.60
2022-12-23T10:25:39.154Z,7.20
2022-12-23T10:26:39.451Z,7.90
2022-12-23T10:27:39.759Z,7.80
2022-12-23T10:28:39.961Z,7.90
2022-12-23T10:29:40.239Z,9.90
2022-12-23T10:31:42.358Z,8.50
2022-12-23T10:32:41.074Z,7.20
2022-12-23T10:33:41.293Z,5.90
2022-12-23T10:34:41.570Z,6.30
2022-12-23T10:35:41.818Z,6.90
2022-12-23T10:36:42.136Z,8.20
2022-12-23T10:37:42.305Z,6.40
2022-12-23T10:38:42.588Z,7.80
2022-12-23T10:39:42.828Z,6.40
2022-12-23T10:40:43.059Z,9.20
2022-12-23T10:41:43.300Z,6.80
2022-12-23T10:42:43.560Z,6.10
2022-12-23T10:43:43.869Z,7.20
2022-12-23T10:44:44.124Z,6.80
2022-12-23T10:45:44.384Z,7.70
2022-12-23T10:46:44.686Z,5.90
2022-12-23T10:47:44.911Z,6.30
2022-12-23T10:48:45.184Z,7.20
2022-12-23T10:49:45.429Z,12.90
2022-12-23T10:50:45.674Z,7.30
2022-12-23T10:51:45.925Z,10.00
2022-12-23T10:52:46.170Z,11.00
2022-12-23T10:53:46.467Z,13.00
2022-12-23T10:54:46.734Z,7.70
2022-12-23T10:55:47.088Z,8.90
2022-12-23T10:56:47.376Z,9.10
2022-12-23T10:57:47.688Z,8.30
2022-12-23T10:58:47.934Z,9.30
2022-12-23T10:59:48.247Z,6.50
2022-12-23T11:00:48.501Z,7.70
2022-12-23T11:01:48.884Z,8.30
2022-12-23T11:02:49.127Z,7.40
2022-12-23T11:03:49.438Z,7.40
2022-12-23T11:04:49.550Z,6.00
2022-12-23T11:05:49.932Z,8.20
2022-12-23T11:06:55.799Z,7.90
2022-12-23T11:07:51.445Z,8.70
2022-12-23T11:08:50.728Z,9.40
2022-12-23T11:09:51.000Z,6.90
2022-12-23T11:10:51.306Z,6.80
2022-12-23T11:11:51.519Z,7.90
2022-12-23T11:12:51.779Z,6.60
2022-12-23T11:13:52.043Z,9.70
2022-12-23T11:14:52.452Z,13.00
2022-12-23T11:15:52.716Z,7.30
2022-12-23T11:16:52.942Z,8.80
2022-12-23T11:17:53.225Z,7.60
2022-12-23T11:18:53.469Z,9.60
2022-12-23T11:19:53.798Z,11.70
2022-12-23T11:20:54.113Z,11.90
2022-12-23T11:21:54.334Z,6.60
2022-12-23T11:22:55.037Z,7.30
2022-12-23T11:23:54.880Z,7.20
2022-12-23T11:24:55.105Z,7.90
2022-12-23T11:25:55.357Z,8.00
2022-12-23T11:26:55.560Z,7.80
2022-12-23T11:27:56.018Z,7.20
2022-12-23T11:28:56.232Z,9.60
2022-12-23T11:29:56.586Z,9.30
2022-12-23T11:30:57.814Z,13.60
2022-12-23T11:31:58.001Z,11.30
2022-12-23T11:32:57.618Z,8.20
2022-12-23T11:33:57.925Z,12.20
2022-12-23T11:34:58.216Z,14.80
2022-12-23T11:35:58.368Z,15.40
2022-12-23T11:37:05.244Z,13.50
2022-12-23T11:37:59.946Z,11.70
2022-12-23T11:38:59.308Z,12.00
2022-12-23T11:39:59.496Z,7.90
2022-12-23T11:40:59.787Z,6.10
2022-12-23T11:42:00.314Z,7.40
2022-12-23T11:43:00.332Z,9.50
2022-12-23T11:44:00.643Z,5.80
2022-12-23T11:45:00.910Z,5.50
2022-12-23T11:46:01.181Z,6.40
2022-12-23T11:47:01.393Z,6.20
2022-12-23T11:48:01.976Z,6.40
2022-12-23T11:49:02.200Z,7.90
2022-12-23T11:50:02.428Z,7.30
2022-12-23T11:51:02.699Z,7.10
2022-12-23T11:52:03.191Z,6.20
2022-12-23T11:53:03.383Z,7.10
2022-12-23T11:54:03.415Z,6.90
2022-12-23T11:55:03.694Z,7.50
2022-12-23T11:56:03.968Z,8.20
2022-12-23T11:57:04.275Z,6.80
2022-12-23T11:58:04.518Z,6.70
2022-12-23T11:59:04.675Z,10.10
2022-12-23T12:00:05.075Z,9.40
2022-12-23T12:01:05.381Z,7.70
2022-12-23T12:02:05.879Z,7.10
2022-12-23T12:03:06.062Z,6.10
2022-12-23T12:04:06.208Z,6.40
2022-12-23T12:05:06.413Z,6.90
2022-12-23T12:06:06.759Z,6.70
2022-12-23T12:07:06.961Z,7.00
2022-12-23T12:08:07.401Z,6.60
2022-12-23T12:09:07.612Z,6.70
2022-12-23T12:10:07.873Z,9.80
2022-12-23T12:11:08.127Z,7.60
2022-12-23T12:12:08.424Z,7.30
2022-12-23T12:13:08.679Z,5.50
2022-12-23T12:14:08.935Z,13.40
2022-12-23T12:15:09.192Z,9.00
2022-12-23T12:16:09.503Z,8.40
2022-12-23T12:17:09.820Z,9.80
2022-12-23T12:18:10.101Z,16.80
2022-12-23T12:19:10.294Z,10.30
2022-12-23T12:20:10.705Z,13.30
2022-12-23T12:21:12.589Z,8.70
2022-12-23T12:22:11.110Z,11.60
2022-12-23T12:23:11.337Z,10.60
2022-12-23T12:24:19.792Z,13.30
2022-12-23T12:25:12.873Z,13.00
2022-12-23T12:26:12.253Z,8.70
2022-12-23T12:27:12.441Z,9.70
2022-12-23T12:28:12.928Z,7.90
2022-12-23T12:29:13.151Z,10.00
2022-12-23T12:30:13.490Z,8.60
2022-12-23T12:31:13.710Z,7.30
2022-12-23T12:32:14.073Z,8.50
2022-12-23T12:33:14.328Z,9.00
2022-12-23T12:34:14.540Z,7.60
2022-12-23T12:35:14.783Z,6.90
2022-12-23T12:36:15.108Z,8.00
2022-12-23T12:37:15.479Z,8.20
2022-12-23T12:38:15.623Z,9.10
2022-12-23T12:39:15.836Z,8.30
2022-12-23T12:40:16.177Z,8.30
2022-12-23T12:41:16.557Z,8.10
2022-12-23T12:42:24.835Z,8.90
2022-12-23T12:43:17.023Z,8.30
2022-12-23T12:44:17.371Z,9.10
2022-12-23T12:45:17.632Z,10.50
2022-12-23T12:46:17.933Z,11.00
2022-12-23T12:48:19.448Z,8.50
2022-12-23T12:49:19.222Z,9.00
2022-12-23T12:50:19.089Z,11.00
2022-12-23T12:51:19.351Z,9.60
2022-12-23T12:52:19.618Z,9.30
2022-12-23T12:53:19.845Z,10.30
2022-12-23T12:54:20.134Z,11.60
2022-12-23T12:55:20.419Z,10.90
2022-12-23T12:56:20.677Z,10.60
2022-12-23T12:57:20.966Z,9.80
2022-12-23T12:58:21.262Z,9.00
2022-12-23T12:59:21.455Z,10.60
2022-12-23T13:00:21.717Z,10.10
2022-12-23T13:01:22.040Z,9.30
2022-12-23T13:02:22.282Z,9.40
2022-12-23T13:03:22.497Z,10.10
2022-12-23T13:04:22.762Z,9.90
2022-12-23T13:05:23.022Z,10.30
2022-12-23T13:06:23.328Z,9.70
2022-12-23T13:07:23.542Z,11.30
2022-12-23T13:08:23.827Z,10.50
2022-12-23T13:09:24.056Z,11.00
2022-12-23T13:10:24.335Z,9.50
2022-12-23T13:11:28.364Z,9.10
2022-12-23T13:12:24.840Z,9.40
2022-12-23T13:13:25.066Z,9.40
2022-12-23T13:14:25.335Z,9.20
2022-12-23T13:15:25.612Z,9.40
2022-12-23T13:16:25.862Z,11.10
2022-12-23T13:17:26.109Z,12.90
2022-12-23T13:18:26.329Z,9.60